createdAt,value
2022-12-15T00:00:43.576Z,100190.31
2022-12-15T00:06:01.179Z,100193.66
2022-12-15T00:11:20.460Z,100183.91
2022-12-15T00:16:36.327Z,100195.84
2022-12-15T00:21:53.736Z,100194.09
2022-12-15T00:27:10.058Z,100197.56
2022-12-15T00:32:26.332Z,100193.16
2022-12-15T00:37:43.691Z,100200.31
2022-12-15T00:42:42.448Z,100187.16
2022-12-15T00:47:41.171Z,100189.69
2022-12-15T00:52:58.924Z,100193.09
2022-12-15T00:58:15.278Z,100191.28
2022-12-15T01:03:33.951Z,100175.50
2022-12-15T01:08:51.735Z,100166.72
2022-12-15T01:14:08.310Z,100172.13
2022-12-15T01:19:26.667Z,100167.78
2022-12-15T01:24:26.800Z,100173.09
2022-12-15T01:29:25.981Z,100182.28
2022-12-15T01:34:24.774Z,100188.59
2022-12-15T01:39:23.651Z,100184.16
2022-12-15T01:44:25.609Z,100189.09
2022-12-15T01:49:30.160Z,100177.53
2022-12-15T01:54:32.875Z,100167.50
2022-12-15T01:59:36.920Z,100159.91
2022-12-15T02:04:37.903Z,100156.56
2022-12-15T02:09:36.665Z,100158.34
2022-12-15T02:15:04.184Z,100171.31
2022-12-15T02:20:41.940Z,100155.13
2022-12-15T02:25:55.184Z,100147.63
2022-12-15T02:31:14.029Z,100148.69
2022-12-15T02:36:20.152Z,100131.63
2022-12-15T02:41:38.597Z,100124.00
2022-12-15T02:46:52.585Z,100125.94
2022-12-15T02:52:03.734Z,100142.13
2022-12-15T02:57:12.063Z,100143.66
2022-12-15T03:02:15.408Z,100145.50
2022-12-15T03:07:15.596Z,100146.50
2022-12-15T03:12:14.269Z,100150.72
2022-12-15T03:17:14.389Z,100159.41
2022-12-15T03:22:13.089Z,100168.50
2022-12-15T03:27:11.896Z,100160.88
2022-12-15T03:32:10.819Z,100161.06
2022-12-15T03:37:10.993Z,100157.75
2022-12-15T03:42:09.876Z,100171.44
2022-12-15T03:47:08.661Z,100182.03
2022-12-15T03:52:07.384Z,100183.66
2022-12-15T03:57:07.507Z,100178.41
2022-12-15T04:02:06.346Z,100170.97
2022-12-15T04:07:05.157Z,100173.22
2022-12-15T04:12:04.490Z,100172.81
2022-12-15T04:17:07.241Z,100173.59
2022-12-15T04:22:05.980Z,100176.88
2022-12-15T04:27:22.252Z,100173.47
2022-12-15T04:32:39.640Z,100183.09
2022-12-15T04:37:55.888Z,100185.78
2022-12-15T04:43:12.234Z,100173.59
2022-12-15T04:48:30.164Z,100196.50
2022-12-15T04:53:46.222Z,100205.66
2022-12-15T04:59:02.311Z,100208.50
2022-12-15T05:04:20.120Z,100208.94
2022-12-15T05:09:36.736Z,100224.44
2022-12-15T05:14:52.817Z,100240.09
2022-12-15T05:20:10.467Z,100271.84
2022-12-15T05:25:27.220Z,100274.50
2022-12-15T05:30:43.486Z,100287.06
2022-12-15T05:35:43.727Z,100307.81
2022-12-15T05:40:42.478Z,100322.09
2022-12-15T05:45:41.226Z,100328.38
2022-12-15T05:50:39.938Z,100347.00
2022-12-15T05:55:39.989Z,100352.97
2022-12-15T06:00:38.845Z,100370.69
2022-12-15T06:05:37.559Z,100385.09
2022-12-15T06:10:36.296Z,100377.06
2022-12-15T06:15:36.418Z,100392.72
2022-12-15T06:20:35.131Z,100398.81
2022-12-15T06:25:33.789Z,100407.16
2022-12-15T06:30:32.862Z,100425.50
2022-12-15T06:35:37.234Z,100440.72
2022-12-15T06:40:38.257Z,100457.38
2022-12-15T06:45:37.358Z,100450.16
2022-12-15T06:50:37.425Z,100477.75
2022-12-15T06:55:36.110Z,100473.06
2022-12-15T07:00:36.779Z,100493.16
2022-12-15T07:05:35.603Z,100489.38
2022-12-15T07:10:35.736Z,100494.00
2022-12-15T07:15:34.498Z,100515.75
2022-12-15T07:20:33.899Z,100521.09
2022-12-15T07:25:32.790Z,100532.13
2022-12-15T07:30:38.458Z,100537.41
2022-12-15T07:35:37.777Z,100546.69
2022-12-15T07:40:36.731Z,100570.03
2022-12-15T07:45:36.976Z,100566.44
2022-12-15T07:50:35.856Z,100570.88
2022-12-15T07:56:05.463Z,100580.34
2022-12-15T08:01:02.194Z,100584.97
2022-12-15T08:06:04.893Z,100600.22
2022-12-15T08:11:05.965Z,100597.00
2022-12-15T08:16:06.443Z,100593.53
2022-12-15T08:21:08.575Z,100599.59
2022-12-15T08:26:09.374Z,100607.50
2022-12-15T08:31:11.971Z,100607.22
2022-12-15T08:36:13.243Z,100618.22
2022-12-15T08:41:14.690Z,100630.41
2022-12-15T08:46:15.460Z,100632.03
2022-12-15T08:51:14.617Z,100607.88
2022-12-15T08:56:15.852Z,100613.69
2022-12-15T09:01:22.751Z,100613.94
2022-12-15T09:06:24.303Z,100617.56
2022-12-15T09:11:24.463Z,100620.41
2022-12-15T09:16:25.107Z,100614.72
2022-12-15T09:21:26.774Z,100625.91
2022-12-15T09:26:25.600Z,100634.34
2022-12-15T09:31:30.826Z,100649.00
2022-12-15T09:36:32.752Z,100641.78
2022-12-15T09:41:34.295Z,100657.97
2022-12-15T09:46:49.951Z,100650.59
2022-12-15T09:51:54.744Z,100644.56
2022-12-15T09:56:57.084Z,100647.25
2022-12-15T10:02:14.794Z,100655.41
2022-12-15T10:07:21.473Z,100652.97
2022-12-15T10:12:26.589Z,100654.38
2022-12-15T10:17:32.078Z,100654.72
2022-12-15T10:22:33.655Z,100648.97
2022-12-15T10:28:00.272Z,100655.44
2022-12-15T10:33:03.677Z,100656.31
2022-12-15T10:38:04.838Z,100649.53
2022-12-15T10:43:14.860Z,100654.41
2022-12-15T10:48:21.667Z,100657.34
2022-12-15T10:53:40.124Z,100648.53
2022-12-15T10:58:50.213Z,100666.34
2022-12-15T11:03:53.115Z,100647.16
2022-12-15T11:08:54.494Z,100646.06
2022-12-15T11:14:07.382Z,100647.34
2022-12-15T11:19:16.305Z,100658.50
2022-12-15T11:24:18.696Z,100657.19
2022-12-15T11:29:28.440Z,100664.41
2022-12-15T11:34:36.664Z,100675.00
2022-12-15T11:39:50.316Z,100684.16
2022-12-15T11:44:58.749Z,100677.72
2022-12-15T11:50:13.989Z,100674.69
2022-12-15T11:55:27.681Z,100682.25
2022-12-15T12:00:36.606Z,100689.16
2022-12-15T12:05:54.851Z,100684.63
2022-12-15T12:11:02.038Z,100696.75
2022-12-15T12:16:12.182Z,100698.16
2022-12-15T12:21:16.802Z,100696.16
2022-12-15T12:26:21.394Z,100712.63
2022-12-15T12:31:28.192Z,100710.59
2022-12-15T12:36:28.306Z,100719.59
2022-12-15T12:41:38.181Z,100730.19
2022-12-15T12:46:43.974Z,100731.66
2022-12-15T12:51:53.189Z,100727.69
2022-12-15T12:56:51.972Z,100733.38
2022-12-15T13:01:51.809Z,100739.47
2022-12-15T13:07:11.544Z,100749.44
2022-12-15T13:12:52.950Z,100752.25
2022-12-15T13:17:55.828Z,100768.84
2022-12-15T13:22:58.305Z,100779.00
2022-12-15T13:28:01.223Z,100769.31
2022-12-15T13:33:19.924Z,100775.66
2022-12-15T13:38:23.186Z,100788.84
2022-12-15T13:43:49.114Z,100791.00
2022-12-15T13:49:06.634Z,100790.00
2022-12-15T13:54:24.736Z,100790.81
2022-12-15T13:59:32.213Z,100777.97
2022-12-15T14:04:30.938Z,100782.72
2022-12-15T14:09:35.375Z,100788.63
2022-12-15T14:14:39.100Z,100787.72
2022-12-15T14:19:39.593Z,100819.13
2022-12-15T14:24:51.717Z,100830.28
2022-12-15T14:29:51.752Z,100846.72
2022-12-15T14:34:53.865Z,100859.84
2022-12-15T14:39:55.311Z,100855.16
2022-12-15T14:44:57.745Z,100840.59
2022-12-15T14:50:01.207Z,100848.03
2022-12-15T14:55:03.424Z,100858.38
2022-12-15T15:00:17.804Z,100870.50
2022-12-15T15:05:27.958Z,100868.03
2022-12-15T15:10:30.929Z,100882.50
2022-12-15T15:15:29.880Z,100889.53
2022-12-15T15:20:31.768Z,100881.84
2022-12-15T15:25:40.757Z,100876.00
2022-12-15T15:30:44.447Z,100875.47
2022-12-15T15:35:44.303Z,100875.25
2022-12-15T15:40:44.599Z,100880.41
2022-12-15T15:45:43.819Z,100869.75
2022-12-15T15:50:42.607Z,100869.53
2022-12-15T15:55:41.425Z,100868.66
2022-12-15T16:00:41.916Z,100878.09
2022-12-15T16:05:44.328Z,100875.31
2022-12-15T16:10:47.229Z,100884.78
2022-12-15T16:15:48.023Z,100880.59
2022-12-15T16:20:51.121Z,100888.53
2022-12-15T16:25:53.990Z,100901.47
2022-12-15T16:30:54.496Z,100904.78
2022-12-15T16:35:53.421Z,100918.50
2022-12-15T16:40:52.888Z,100922.47
2022-12-15T16:45:56.524Z,100937.22
2022-12-15T16:50:58.371Z,100943.94
2022-12-15T16:55:58.751Z,100944.56
2022-12-15T17:00:59.528Z,100946.03
2022-12-15T17:06:02.121Z,100954.94
2022-12-15T17:11:01.279Z,100960.25
2022-12-15T17:16:01.634Z,100955.84
2022-12-15T17:21:05.000Z,100953.81
2022-12-15T17:26:27.539Z,100956.16
2022-12-15T17:31:33.252Z,100959.59
2022-12-15T17:36:38.113Z,100964.78
2022-12-15T17:41:58.580Z,100973.47
2022-12-15T17:46:57.120Z,100977.84
2022-12-15T17:51:56.012Z,100983.13
2022-12-15T17:56:54.845Z,100987.50
2022-12-15T18:01:57.340Z,100985.91
2022-12-15T18:07:02.239Z,100970.13
2022-12-15T18:12:01.567Z,100950.03
2022-12-15T18:17:00.418Z,100955.25
2022-12-15T18:22:00.739Z,100951.03
2022-12-15T18:26:59.496Z,100956.44
2022-12-15T18:31:58.359Z,100967.00
2022-12-15T18:36:57.353Z,100961.06
2022-12-15T18:41:58.282Z,100973.34
2022-12-15T18:46:57.235Z,100988.38
2022-12-15T18:51:57.022Z,100991.72
2022-12-15T18:56:57.249Z,100998.81
2022-12-15T19:01:56.108Z,100992.84
2022-12-15T19:06:54.912Z,100993.44
2022-12-15T19:12:13.480Z,101006.47
2022-12-15T19:17:33.300Z,101010.69
2022-12-15T19:22:32.102Z,101016.84
2022-12-15T19:27:30.861Z,101028.28
2022-12-15T19:32:31.016Z,101028.84
2022-12-15T19:37:32.141Z,101024.75
2022-12-15T19:42:33.805Z,101008.88
2022-12-15T19:47:34.237Z,101021.72
2022-12-15T19:52:33.088Z,101024.28
2022-12-15T19:57:32.647Z,101035.63
2022-12-15T20:02:46.821Z,101028.84
2022-12-15T20:07:48.410Z,101034.81
2022-12-15T20:12:52.340Z,101037.38
2022-12-15T20:17:57.053Z,101034.72
2022-12-15T20:23:02.569Z,101034.56
2022-12-15T20:28:02.295Z,101028.75
2022-12-15T20:33:01.111Z,101009.09
2022-12-15T20:38:04.464Z,101018.72
2022-12-15T20:43:03.268Z,101002.09
2022-12-15T20:48:02.649Z,101011.53
2022-12-15T20:53:03.002Z,101013.38
2022-12-15T20:58:01.778Z,101016.19
2022-12-15T21:03:01.634Z,101008.88
2022-12-15T21:08:00.466Z,101020.31
2022-12-15T21:13:00.765Z,101006.63
2022-12-15T21:18:36.532Z,101009.41
2022-12-15T21:23:22.370Z,101031.56
2022-12-15T21:28:23.520Z,101011.66
2022-12-15T21:33:22.373Z,101004.88
2022-12-15T21:38:35.200Z,101027.38
2022-12-15T21:43:37.174Z,101025.63
2022-12-15T21:48:53.146Z,101020.47
2022-12-15T21:53:52.700Z,101021.19
2022-12-15T21:58:54.782Z,101023.88
2022-12-15T22:03:55.942Z,101009.97
2022-12-15T22:08:56.114Z,101005.63
2022-12-15T22:13:58.882Z,100998.53
2022-12-15T22:18:59.511Z,100995.75
2022-12-15T22:23:58.223Z,100982.53
2022-12-15T22:29:01.252Z,100984.38
2022-12-15T22:34:00.002Z,101001.59
2022-12-15T22:39:02.907Z,100991.09
2022-12-15T22:44:06.448Z,100994.44
2022-12-15T22:49:05.239Z,100994.75
2022-12-15T22:54:04.021Z,100980.78
2022-12-15T22:59:08.440Z,100988.72
2022-12-15T23:04:07.389Z,100999.06
2022-12-15T23:09:06.360Z,100979.72
2022-12-15T23:14:07.980Z,100966.84
2022-12-15T23:19:08.918Z,100940.13
2022-12-15T23:24:09.453Z,100933.59
2022-12-15T23:29:09.559Z,100940.66
2022-12-15T23:34:08.656Z,100927.53
2022-12-15T23:39:07.398Z,100924.91
2022-12-15T23:44:07.425Z,100917.88
2022-12-15T23:49:08.087Z,100918.13
2022-12-15T23:54:06.868Z,100906.97
2022-12-15T23:59:05.729Z,100917.44
